Time;durP1;ratioP1;P1;durP2;ratioP2;P2;SDS_P1;SDS_P2;PMS_P1;PMS_P2;Temp;Humidity;BMP_temperature;BMP_pressure;BME280_temperature;BME280_humidity;BME280_pressure;Samples;Min_cycle;Max_cycle;Signal;HPM_P1;HPM_P2
2021/03/06 00:01:06;;;;;;;10.50;6.22;;;-0.40;99.90;;;;;;5090346;28;20252;-65
2021/03/06 00:03:32;;;;;;;13.20;6.47;;;-0.40;99.90;;;;;;5082261;28;20727;-64
2021/03/06 00:05:59;;;;;;;10.90;6.43;;;-0.40;99.90;;;;;;5090010;28;20281;-65
2021/03/06 00:08:27;;;;;;;12.57;6.90;;;-0.40;99.90;;;;;;5074689;28;20524;-63
2021/03/06 00:10:55;;;;;;;11.63;5.43;;;-0.40;99.90;;;;;;5069852;28;20198;-63
2021/03/06 00:13:21;;;;;;;12.98;5.93;;;-0.40;99.90;;;;;;5069747;28;20197;-64
2021/03/06 00:15:48;;;;;;;16.00;6.82;;;-0.40;99.90;;;;;;5067674;28;20640;-63
2021/03/06 00:18:14;;;;;;;13.00;5.72;;;-0.40;99.90;;;;;;5069943;28;20221;-66
2021/03/06 00:20:41;;;;;;;9.40;5.00;;;-0.40;99.90;;;;;;5070472;28;20336;-63
2021/03/06 00:23:08;;;;;;;10.50;6.53;;;-0.50;99.90;;;;;;5068797;28;20728;-64
2021/03/06 00:25:35;;;;;;;12.02;6.38;;;-0.50;99.90;;;;;;5068906;28;20203;-64
2021/03/06 00:28:02;;;;;;;10.93;5.45;;;-0.60;99.90;;;;;;5076265;28;20912;-63
2021/03/06 00:30:28;;;;;;;11.18;5.93;;;-0.60;99.90;;;;;;5079282;28;20618;-64
2021/03/06 00:32:55;;;;;;;12.68;7.03;;;-0.60;99.90;;;;;;5073971;28;20199;-64
2021/03/06 00:35:22;;;;;;;13.82;5.72;;;-0.70;99.90;;;;;;5072202;28;20651;-64
2021/03/06 00:37:48;;;;;;;13.57;5.50;;;-0.60;99.90;;;;;;5085193;28;20666;-64
2021/03/06 00:40:15;;;;;;;12.73;7.07;;;-0.60;99.90;;;;;;5083892;28;20282;-63
2021/03/06 00:42:42;;;;;;;12.13;6.65;;;-0.60;99.90;;;;;;5088181;28;20284;-64
2021/03/06 00:45:10;;;;;;;12.90;6.47;;;-0.60;99.90;;;;;;5069179;28;20599;-65
2021/03/06 00:47:37;;;;;;;10.88;5.88;;;-0.60;99.90;;;;;;5076534;28;20222;-63
2021/03/06 00:50:10;;;;;;;11.43;5.40;;;-0.60;99.90;;;;;;5075822;28;20552;-64
2021/03/06 00:52:37;;;;;;;12.68;6.95;;;-0.70;99.90;;;;;;5074763;28;20587;-63
2021/03/06 00:55:04;;;;;;;10.13;6.22;;;-0.70;99.90;;;;;;5071455;28;20287;-64
2021/03/06 00:57:31;;;;;;;10.82;5.57;;;-0.70;99.90;;;;;;5070762;28;20298;-64
2021/03/06 00:59:58;;;;;;;10.57;5.57;;;-0.70;99.90;;;;;;5083728;28;20191;-64
2021/03/06 01:02:25;;;;;;;13.93;7.70;;;-0.70;99.90;;;;;;5070620;28;20290;-63
2021/03/06 01:04:52;;;;;;;12.48;6.45;;;-0.70;99.90;;;;;;5090315;28;20238;-66
2021/03/06 01:07:18;;;;;;;9.50;5.72;;;-0.70;99.90;;;;;;5067882;28;20305;-63
2021/03/06 01:09:45;;;;;;;15.20;6.20;;;-0.80;99.90;;;;;;5072071;28;20634;-63
2021/03/06 01:12:11;;;;;;;10.07;5.85;;;-0.80;99.90;;;;;;5071400;28;20281;-64
2021/03/06 01:14:38;;;;;;;13.45;6.53;;;-0.80;99.90;;;;;;5069950;28;20609;-66
2021/03/06 01:17:05;;;;;;;11.85;5.93;;;-0.80;99.90;;;;;;5067945;28;20380;-66
2021/03/06 01:19:33;;;;;;;12.75;6.53;;;-0.80;99.90;;;;;;5084737;28;20286;-64
2021/03/06 01:21:59;;;;;;;9.25;5.57;;;-0.80;99.90;;;;;;5089274;28;20633;-63
2021/03/06 01:24:26;;;;;;;13.35;6.10;;;-0.80;99.90;;;;;;5068794;28;20202;-64
2021/03/06 01:26:52;;;;;;;8.50;5.40;;;-0.80;99.90;;;;;;5084320;28;20250;-65
2021/03/06 01:29:19;;;;;;;10.50;6.22;;;-0.90;99.90;;;;;;5076891;28;20198;-63
2021/03/06 01:31:47;;;;;;;10.85;5.78;;;-0.90;99.90;;;;;;5063473;28;20685;-64
2021/03/06 01:34:14;;;;;;;12.82;6.97;;;-0.90;99.90;;;;;;5091892;28;20195;-64
2021/03/06 01:36:41;;;;;;;13.15;6.30;;;-0.90;99.90;;;;;;5109695;28;20196;-65
2021/03/06 01:39:07;;;;;;;14.85;6.95;;;-1.00;99.90;;;;;;5102268;27;20273;-63
2021/03/06 01:41:34;;;;;;;11.57;6.47;;;-0.90;99.90;;;;;;5091005;28;20711;-64
2021/03/06 01:44:00;;;;;;;10.90;5.95;;;-1.00;99.90;;;;;;5084956;28;20232;-64
2021/03/06 01:46:27;;;;;;;10.70;6.05;;;-1.00;99.90;;;;;;5080157;28;20238;-63
2021/03/06 01:48:54;;;;;;;12.00;6.60;;;-1.00;99.90;;;;;;5070350;28;20197;-64
2021/03/06 01:51:21;;;;;;;11.30;5.78;;;-1.00;99.90;;;;;;5076239;28;20648;-66
2021/03/06 01:53:48;;;;;;;10.88;5.55;;;-1.10;99.90;;;;;;5072881;28;20193;-63
2021/03/06 01:56:14;;;;;;;10.95;6.85;;;-1.00;99.90;;;;;;5073603;28;20222;-64
2021/03/06 01:58:41;;;;;;;12.32;6.82;;;-1.10;99.90;;;;;;5091271;28;20200;-62
2021/03/06 02:01:09;;;;;;;9.30;5.95;;;-1.10;99.90;;;;;;5076871;28;20289;-64
2021/03/06 02:03:36;;;;;;;11.63;6.22;;;-1.10;99.90;;;;;;5076363;28;20299;-65
2021/03/06 02:06:03;;;;;;;12.88;6.38;;;-1.10;99.90;;;;;;5070995;28;20201;-63
2021/03/06 02:08:30;;;;;;;10.90;6.70;;;-1.20;99.90;;;;;;5084794;28;20221;-63
2021/03/06 02:10:57;;;;;;;9.57;5.95;;;-1.20;99.90;;;;;;5078258;28;20284;-63
2021/03/06 02:13:51;;;;;;;12.15;6.85;;;-1.20;99.90;;;;;;5076086;28;20198;-65
2021/03/06 02:16:25;;;;;;;13.38;6.22;;;-1.20;99.90;;;;;;5073887;28;20228;-63
2021/03/06 02:18:58;;;;;;;11.57;6.70;;;-1.20;99.90;;;;;;5074524;28;20295;-64
2021/03/06 02:21:37;;;;;;;13.73;7.30;;;-1.30;99.90;;;;;;5082519;28;20292;-63
2021/03/06 02:24:48;;;;;;;10.65;6.70;;;-1.30;99.90;;;;;;5075388;28;20282;-65
2021/03/06 02:27:32;;;;;;;9.88;6.32;;;-1.30;99.90;;;;;;5070753;28;20695;-62
2021/03/06 02:30:02;;;;;;;10.07;5.57;;;-1.30;99.90;;;;;;5078288;28;20218;-64
2021/03/06 02:32:32;;;;;;;12.00;6.85;;;-1.30;99.90;;;;;;5074143;28;20716;-64
2021/03/06 02:35:06;;;;;;;10.35;5.97;;;-1.20;99.90;;;;;;5087066;28;20553;-65
2021/03/06 02:37:35;;;;;;;10.50;6.50;;;-1.30;99.90;;;;;;5074755;28;20350;-63
2021/03/06 02:40:03;;;;;;;14.48;6.00;;;-1.30;99.90;;;;;;5072238;28;20298;-63
2021/03/06 02:42:31;;;;;;;14.88;6.28;;;-1.30;99.90;;;;;;5084102;28;20203;-64
2021/03/06 02:44:59;;;;;;;9.50;5.95;;;-1.30;99.90;;;;;;5073025;28;20679;-66
2021/03/06 02:47:26;;;;;;;10.60;6.68;;;-1.40;99.90;;;;;;5078962;28;20261;-64
2021/03/06 02:49:54;;;;;;;13.02;6.85;;;-1.40;99.90;;;;;;5086117;28;20288;-65
2021/03/06 02:52:21;;;;;;;10.52;6.50;;;-1.40;99.90;;;;;;5092298;28;20231;-64
2021/03/06 02:54:49;;;;;;;13.27;7.35;;;-1.40;99.90;;;;;;5090824;28;20288;-65
2021/03/06 02:57:33;;;;;;;21.02;9.02;;;-1.40;99.90;;;;;;5090829;28;20291;-63
2021/03/06 03:00:12;;;;;;;14.73;8.10;;;-1.40;99.90;;;;;;5086821;28;20223;-63
2021/03/06 03:02:46;;;;;;;11.88;7.93;;;-1.40;99.90;;;;;;5078112;28;20256;-64
2021/03/06 03:05:24;;;;;;;14.82;9.35;;;-1.40;99.90;;;;;;5092226;28;20527;-63
2021/03/06 03:07:53;;;;;;;13.20;8.40;;;-1.50;99.90;;;;;;5072926;28;20678;-63
2021/03/06 03:10:22;;;;;;;12.63;6.95;;;-1.40;99.90;;;;;;5071906;28;20288;-63
2021/03/06 03:12:54;;;;;;;12.32;7.97;;;-1.40;99.90;;;;;;5076291;28;20216;-63
2021/03/06 03:15:26;;;;;;;11.38;8.30;;;-1.40;99.90;;;;;;5084891;28;20668;-63
2021/03/06 03:17:55;;;;;;;15.50;8.43;;;-1.50;99.90;;;;;;5090184;28;20590;-63
2021/03/06 03:20:31;;;;;;;11.43;7.40;;;-1.50;99.90;;;;;;5086952;28;20559;-64
2021/03/06 03:23:02;;;;;;;14.60;8.90;;;-1.50;99.90;;;;;;5080983;28;20431;-61
2021/03/06 03:25:31;;;;;;;10.68;6.90;;;-1.50;99.90;;;;;;5079337;28;20226;-64
2021/03/06 03:27:57;;;;;;;14.10;8.13;;;-1.50;99.90;;;;;;5092546;28;20301;-63
2021/03/06 03:30:25;;;;;;;12.23;7.53;;;-1.50;99.90;;;;;;5083295;28;20227;-62
2021/03/06 03:32:53;;;;;;;13.70;9.00;;;-1.50;99.90;;;;;;5087523;28;20554;-63
2021/03/06 03:35:23;;;;;;;14.15;7.90;;;-1.50;99.90;;;;;;5088819;28;20199;-64
2021/03/06 03:37:51;;;;;;;15.38;9.45;;;-1.60;99.90;;;;;;5091340;28;20200;-63
2021/03/06 03:40:20;;;;;;;18.45;8.75;;;-1.60;99.90;;;;;;5088064;28;20300;-63
2021/03/06 03:42:47;;;;;;;15.95;7.75;;;-1.60;99.90;;;;;;5084945;28;20294;-63
2021/03/06 03:45:16;;;;;;;15.68;8.65;;;-1.60;99.90;;;;;;5072743;28;20288;-65
2021/03/06 03:47:44;;;;;;;12.88;7.75;;;-1.70;99.90;;;;;;5076351;28;20213;-63
2021/03/06 03:50:12;;;;;;;12.45;8.30;;;-1.70;99.90;;;;;;5079125;28;20283;-63
2021/03/06 03:52:40;;;;;;;14.73;7.40;;;-1.70;99.90;;;;;;5077167;28;20271;-63
2021/03/06 03:55:08;;;;;;;12.57;7.85;;;-1.70;99.90;;;;;;5089801;28;20313;-63
2021/03/06 03:57:34;;;;;;;15.50;9.65;;;-1.60;99.90;;;;;;5077005;28;20284;-63
2021/03/06 04:00:02;;;;;;;15.10;8.68;;;-1.70;99.90;;;;;;5081914;28;20620;-62
2021/03/06 04:02:29;;;;;;;12.30;8.30;;;-1.70;99.90;;;;;;5070799;28;20279;-62
2021/03/06 04:04:56;;;;;;;14.63;9.23;;;-1.70;99.90;;;;;;5085450;28;20208;-63
2021/03/06 04:07:23;;;;;;;12.90;7.30;;;-1.70;99.90;;;;;;5092308;28;20243;-63
2021/03/06 04:09:49;;;;;;;17.08;9.48;;;-1.70;99.90;;;;;;5083194;28;20249;-64
2021/03/06 04:12:16;;;;;;;12.57;8.70;;;-1.70;99.90;;;;;;5070028;28;20201;-62
2021/03/06 04:14:42;;;;;;;13.13;8.32;;;-1.70;99.90;;;;;;5070260;28;20625;-63
2021/03/06 04:17:09;;;;;;;15.20;7.68;;;-1.70;99.90;;;;;;5069350;28;20204;-62
2021/03/06 04:19:36;;;;;;;14.80;8.77;;;-1.70;99.90;;;;;;5106841;28;20192;-62
2021/03/06 04:22:04;;;;;;;17.50;8.07;;;-1.70;99.90;;;;;;5110529;28;20640;-63
2021/03/06 04:24:31;;;;;;;17.08;9.30;;;-1.70;99.90;;;;;;5108218;27;20199;-62
2021/03/06 04:26:57;;;;;;;12.60;8.82;;;-1.70;99.90;;;;;;5079989;28;20523;-64
2021/03/06 04:29:24;;;;;;;13.77;7.80;;;-1.70;99.90;;;;;;5090862;28;20202;-64
2021/03/06 04:31:50;;;;;;;14.75;8.85;;;-1.70;99.90;;;;;;5071956;28;20206;-65
2021/03/06 04:34:17;;;;;;;18.00;7.72;;;-1.70;99.90;;;;;;5086236;28;20562;-63
2021/03/06 04:36:43;;;;;;;13.93;8.50;;;-1.80;99.90;;;;;;5084330;28;20192;-63
2021/03/06 04:39:12;;;;;;;16.02;8.40;;;-1.70;99.90;;;;;;5090914;28;20225;-62
2021/03/06 04:41:38;;;;;;;14.15;8.20;;;-1.80;99.90;;;;;;5079119;28;20231;-62
2021/03/06 04:44:08;;;;;;;13.32;8.20;;;-1.70;99.90;;;;;;5071854;28;20211;-64
2021/03/06 04:46:35;;;;;;;15.23;8.75;;;-1.80;99.90;;;;;;5102147;28;20212;-63
2021/03/06 04:49:02;;;;;;;15.80;8.27;;;-1.80;99.90;;;;;;5087604;28;20234;-64
2021/03/06 04:51:29;;;;;;;13.07;8.50;;;-1.80;99.90;;;;;;5106655;28;20311;-63
2021/03/06 04:53:56;;;;;;;13.82;7.82;;;-1.80;99.90;;;;;;5106658;28;20236;-63
2021/03/06 04:56:23;;;;;;;15.75;8.23;;;-1.80;99.90;;;;;;5090104;28;20208;-63
2021/03/06 04:58:50;;;;;;;14.23;7.53;;;-1.80;99.90;;;;;;5089365;28;20715;-63
2021/03/06 05:01:16;;;;;;;12.27;7.88;;;-1.80;99.90;;;;;;5085319;28;20287;-63
2021/03/06 05:03:43;;;;;;;15.35;7.50;;;-1.80;99.90;;;;;;5076092;28;20194;-63
2021/03/06 05:06:10;;;;;;;13.50;7.22;;;-1.80;99.90;;;;;;5087248;28;20196;-63
2021/03/06 05:08:37;;;;;;;15.05;8.48;;;-1.80;99.90;;;;;;5074327;28;20259;-62
2021/03/06 05:11:03;;;;;;;14.25;8.05;;;-1.80;99.90;;;;;;5079028;28;20220;-63
2021/03/06 05:13:30;;;;;;;13.23;7.97;;;-1.80;99.90;;;;;;5090143;28;20185;-65
2021/03/06 05:15:57;;;;;;;12.38;8.02;;;-1.80;99.90;;;;;;5086734;28;20280;-62
2021/03/06 05:18:24;;;;;;;16.52;8.07;;;-1.90;99.90;;;;;;5091742;28;20203;-63
2021/03/06 05:20:50;;;;;;;12.90;7.45;;;-1.90;99.90;;;;;;5077156;28;20246;-63
2021/03/06 05:23:17;;;;;;;14.50;8.05;;;-1.90;99.90;;;;;;5075641;28;20207;-63
2021/03/06 05:25:43;;;;;;;13.77;7.68;;;-1.90;99.90;;;;;;5087114;28;20637;-62
2021/03/06 05:28:10;;;;;;;11.18;7.55;;;-1.90;99.90;;;;;;5094006;28;20220;-62
2021/03/06 05:30:37;;;;;;;14.52;9.25;;;-1.90;99.90;;;;;;5055546;28;20649;-65
2021/03/06 05:33:04;;;;;;;13.35;7.60;;;-2.00;99.90;;;;;;5079349;28;20196;-62
2021/03/06 05:35:31;;;;;;;13.75;9.38;;;-1.90;99.90;;;;;;5092362;28;20202;-62
2021/03/06 05:37:57;;;;;;;13.45;8.18;;;-2.00;99.90;;;;;;5089134;28;20274;-61
2021/03/06 05:40:29;;;;;;;14.25;8.23;;;-1.90;99.90;;;;;;5092768;28;20662;-62
2021/03/06 05:42:56;;;;;;;12.57;8.65;;;-2.00;99.90;;;;;;5093600;28;21408;-63
2021/03/06 05:45:23;;;;;;;10.95;6.80;;;-2.00;99.90;;;;;;5073591;28;20209;-63
2021/03/06 05:47:50;;;;;;;13.82;8.23;;;-2.00;99.90;;;;;;5074124;28;20278;-64
2021/03/06 05:50:16;;;;;;;16.40;8.50;;;-2.00;99.90;;;;;;5081419;28;20200;-63
2021/03/06 05:52:46;;;;;;;13.70;7.45;;;-2.10;99.90;;;;;;5071925;28;20288;-62
2021/03/06 05:55:17;;;;;;;14.30;8.00;;;-2.00;99.90;;;;;;5075327;28;20193;-63
2021/03/06 05:57:44;;;;;;;12.77;7.90;;;-2.00;99.90;;;;;;5075011;28;20581;-63
2021/03/06 06:00:11;;;;;;;14.30;7.07;;;-2.00;99.90;;;;;;5085327;28;20188;-63
2021/03/06 06:02:38;;;;;;;12.25;7.40;;;-2.00;99.90;;;;;;5091232;28;20192;-63
2021/03/06 06:05:07;;;;;;;16.52;7.20;;;-2.00;99.90;;;;;;5091976;28;20196;-64
2021/03/06 06:07:36;;;;;;;15.45;8.45;;;-2.10;99.90;;;;;;5094018;28;20216;-63
2021/03/06 06:10:03;;;;;;;9.52;7.00;;;-2.10;99.90;;;;;;5073347;28;20285;-63
2021/03/06 06:12:30;;;;;;;10.15;7.03;;;-2.10;99.90;;;;;;5074049;28;20284;-63
2021/03/06 06:14:56;;;;;;;11.75;7.00;;;-2.00;99.90;;;;;;5083038;28;20279;-63
2021/03/06 06:17:24;;;;;;;13.55;6.90;;;-2.00;99.90;;;;;;5073539;28;20245;-63
2021/03/06 06:19:50;;;;;;;11.18;7.88;;;-2.00;99.90;;;;;;5090163;28;20599;-63
2021/03/06 06:22:19;;;;;;;12.55;6.25;;;-2.00;99.90;;;;;;5092588;28;20316;-62
2021/03/06 06:24:47;;;;;;;10.98;6.97;;;-2.00;99.90;;;;;;5077967;28;20194;-63
2021/03/06 06:27:22;;;;;;;13.13;7.43;;;-2.00;99.90;;;;;;5072091;28;20224;-64
2021/03/06 06:29:48;;;;;;;11.75;7.03;;;-1.90;99.90;;;;;;5082451;28;20287;-64
2021/03/06 06:32:16;;;;;;;11.00;7.75;;;-1.90;99.90;;;;;;5087294;28;20291;-64
2021/03/06 06:34:55;;;;;;;10.88;6.78;;;-1.90;99.90;;;;;;5074919;28;20197;-63
2021/03/06 06:37:23;;;;;;;10.50;7.15;;;-1.90;99.90;;;;;;5075705;28;20291;-63
2021/03/06 06:39:50;;;;;;;14.70;6.47;;;-1.90;99.90;;;;;;5072382;28;20204;-63
2021/03/06 06:42:16;;;;;;;10.50;6.65;;;-1.80;99.90;;;;;;5077088;28;20189;-63
2021/03/06 06:44:55;;;;;;;11.20;6.72;;;-1.80;99.90;;;;;;5074241;28;20682;-63
2021/03/06 06:47:23;;;;;;;11.02;6.90;;;-1.70;99.90;;;;;;5079036;28;20311;-64
2021/03/06 06:49:51;;;;;;;13.73;8.23;;;-1.70;99.90;;;;;;5083061;28;20643;-68
2021/03/06 06:52:19;;;;;;;12.25;8.20;;;-1.60;99.90;;;;;;5090050;28;20197;-65
2021/03/06 06:54:53;;;;;;;11.45;7.20;;;-1.60;99.90;;;;;;5090778;28;20196;-66
2021/03/06 06:57:20;;;;;;;10.75;8.02;;;-1.50;99.90;;;;;;5088660;28;20642;-66
2021/03/06 06:59:58;;;;;;;11.93;7.68;;;-1.30;99.90;;;;;;5090701;28;20190;-66
2021/03/06 07:02:25;;;;;;;12.10;7.40;;;-1.20;99.90;;;;;;5089597;28;20185;-66
2021/03/06 07:04:54;;;;;;;11.77;7.88;;;-1.10;99.90;;;;;;5087673;28;20198;-66
2021/03/06 07:07:22;;;;;;;12.82;7.70;;;-1.10;99.90;;;;;;5087152;28;20611;-65
2021/03/06 07:10:00;;;;;;;14.32;7.82;;;-1.00;99.90;;;;;;5091432;28;20555;-69
2021/03/06 07:12:29;;;;;;;15.35;7.50;;;-0.80;99.90;;;;;;5087361;28;20211;-65
2021/03/06 07:14:56;;;;;;;12.70;7.13;;;-0.80;99.90;;;;;;5092488;28;20285;-68
2021/03/06 07:17:23;;;;;;;11.13;7.22;;;-0.70;99.90;;;;;;5081600;28;20293;-66
2021/03/06 07:19:50;;;;;;;10.60;6.70;;;-0.60;99.90;;;;;;5078279;28;20599;-65
2021/03/06 07:22:16;;;;;;;12.38;7.65;;;-0.50;99.90;;;;;;5092812;28;20189;-67
2021/03/06 07:24:44;;;;;;;11.63;7.40;;;-0.40;99.90;;;;;;5085500;28;20353;-65
2021/03/06 07:27:11;;;;;;;13.02;7.50;;;-0.40;99.90;;;;;;5088675;28;20193;-71
2021/03/06 07:29:38;;;;;;;12.93;8.38;;;-0.30;99.90;;;;;;5088869;28;20246;-69
2021/03/06 07:32:10;;;;;;;13.38;7.75;;;-0.20;99.90;;;;;;5079000;28;20205;-69
2021/03/06 07:34:37;;;;;;;12.43;7.60;;;-0.10;99.90;;;;;;5085783;28;20242;-68
2021/03/06 07:37:05;;;;;;;12.23;8.05;;;0.00;99.90;;;;;;5081377;28;20277;-66
2021/03/06 07:39:39;;;;;;;14.00;7.75;;;0.10;99.90;;;;;;5085395;28;20220;-65
2021/03/06 07:42:15;;;;;;;11.52;7.43;;;0.20;99.90;;;;;;5088681;28;20262;-66
2021/03/06 07:44:43;;;;;;;11.95;7.45;;;0.30;99.90;;;;;;5093472;28;20206;-65
2021/03/06 07:47:13;;;;;;;15.60;8.40;;;0.40;99.90;;;;;;5091176;28;20209;-69
2021/03/06 07:49:41;;;;;;;11.82;7.38;;;0.50;99.90;;;;;;5091410;28;20201;-65
2021/03/06 07:52:09;;;;;;;10.60;7.10;;;0.60;99.90;;;;;;5082403;28;20197;-67
2021/03/06 07:54:37;;;;;;;12.75;6.78;;;0.70;99.90;;;;;;5087951;28;20192;-70
2021/03/06 07:57:04;;;;;;;11.32;7.22;;;0.90;99.90;;;;;;5083296;28;20209;-66
2021/03/06 07:59:51;;;;;;;12.32;7.85;;;1.00;99.90;;;;;;5089914;28;20658;-68
2021/03/06 08:02:32;;;;;;;13.65;7.45;;;1.10;99.90;;;;;;5087395;28;20195;-65
2021/03/06 08:04:59;;;;;;;15.00;8.73;;;1.20;99.90;;;;;;5090145;28;20234;-69
2021/03/06 08:07:39;;;;;;;13.27;6.40;;;1.30;99.90;;;;;;5090620;28;20229;-68
2021/03/06 08:10:08;;;;;;;13.13;7.95;;;1.40;99.90;;;;;;5089714;28;20286;-65
2021/03/06 08:12:35;;;;;;;14.23;8.35;;;1.50;99.90;;;;;;5102310;28;20229;-66
2021/03/06 08:15:32;;;;;;;13.65;7.72;;;1.60;99.90;;;;;;5082915;28;20208;-65
2021/03/06 08:18:00;;;;;;;15.40;8.35;;;1.80;99.90;;;;;;5083666;28;20248;-65
2021/03/06 08:20:28;;;;;;;13.70;7.80;;;1.90;99.90;;;;;;5087003;28;20677;-66
2021/03/06 08:23:20;;;;;;;14.23;7.38;;;2.20;99.90;;;;;;5091174;28;20226;-66
2021/03/06 08:25:48;;;;;;;13.02;6.70;;;2.70;99.90;;;;;;5072994;28;20202;-65
2021/03/06 08:28:25;;;;;;;14.23;7.77;;;3.40;99.90;;;;;;5088214;28;20273;-68
2021/03/06 08:30:53;;;;;;;11.70;6.10;;;3.90;99.90;;;;;;5076923;28;21006;-66
2021/03/06 08:33:19;;;;;;;12.10;6.77;;;4.50;99.90;;;;;;5089789;28;20413;-67
2021/03/06 08:35:46;;;;;;;20.43;8.00;;;5.30;99.90;;;;;;5089340;28;20462;-65
2021/03/06 08:38:31;;;;;;;13.10;7.43;;;6.20;99.90;;;;;;5088195;28;20507;-66
2021/03/06 08:40:58;;;;;;;10.70;6.57;;;7.50;99.90;;;;;;5071619;28;20549;-65
2021/03/06 08:43:25;;;;;;;14.87;8.03;;;8.90;99.90;;;;;;5079115;28;20892;-65
2021/03/06 08:45:53;;;;;;;14.90;8.00;;;10.10;99.90;;;;;;5072237;28;20497;-66
2021/03/06 08:48:23;;;;;;;11.87;5.40;;;11.00;99.90;;;;;;5070861;28;20816;-66
2021/03/06 08:50:50;;;;;;;11.07;4.30;;;11.70;99.90;;;;;;5091271;28;20788;-67
2021/03/06 08:53:17;;;;;;;10.30;3.80;;;12.00;99.90;;;;;;5088893;28;20540;-66
2021/03/06 08:55:45;;;;;;;10.07;4.47;;;12.40;99.30;;;;;;5074833;28;20434;-66
2021/03/06 08:58:12;;;;;;;14.67;4.10;;;13.00;97.90;;;;;;5077805;28;20463;-69
2021/03/06 09:00:40;;;;;;;12.10;4.50;;;13.50;96.10;;;;;;5074579;28;20802;-67
2021/03/06 09:03:14;;;;;;;10.50;4.30;;;14.80;94.40;;;;;;5084927;28;20452;-67
2021/03/06 09:05:41;;;;;;;11.07;4.87;;;15.80;90.50;;;;;;5083896;28;20455;-66
2021/03/06 09:08:08;;;;;;;11.17;4.33;;;16.30;86.10;;;;;;5068954;28;20479;-66
2021/03/06 09:10:40;;;;;;;10.40;4.20;;;16.50;81.60;;;;;;5069775;28;20455;-66
2021/03/06 09:13:14;;;;;;;9.27;3.63;;;15.80;79.10;;;;;;5070842;28;20932;-66
2021/03/06 09:15:46;;;;;;;11.57;3.30;;;16.20;78.40;;;;;;5071523;28;20450;-68
2021/03/06 09:18:15;;;;;;;7.10;2.63;;;16.30;76.90;;;;;;5068941;28;20451;-67
2021/03/06 09:20:47;;;;;;;11.33;3.20;;;17.20;78.10;;;;;;5070769;28;20923;-67
2021/03/06 09:23:24;;;;;;;8.43;2.83;;;16.20;73.70;;;;;;5076617;28;20814;-68
2021/03/06 09:25:51;;;;;;;12.00;4.13;;;16.50;73.40;;;;;;5110847;28;20444;-69
2021/03/06 09:28:23;;;;;;;10.93;3.37;;;16.10;71.40;;;;;;5087113;28;20534;-66
2021/03/06 09:30:50;;;;;;;15.13;3.67;;;15.50;71.90;;;;;;5090946;28;20452;-67
2021/03/06 09:33:26;;;;;;;10.87;3.40;;;16.80;72.30;;;;;;5082671;28;20526;-67
2021/03/06 09:35:57;;;;;;;16.07;4.27;;;17.70;70.40;;;;;;5070136;28;20475;-66
2021/03/06 09:38:23;;;;;;;10.33;4.60;;;18.80;69.30;;;;;;5071377;28;20538;-67
2021/03/06 09:40:50;;;;;;;10.10;4.17;;;18.70;64.60;;;;;;5069946;28;20445;-68
2021/03/06 09:43:24;;;;;;;9.40;3.60;;;17.90;64.60;;;;;;5076636;28;20435;-70
2021/03/06 09:45:50;;;;;;;7.87;3.50;;;17.80;65.10;;;;;;5089796;28;20454;-66
2021/03/06 09:48:17;;;;;;;11.07;4.07;;;17.40;64.00;;;;;;5073811;28;20558;-66
2021/03/06 09:50:46;;;;;;;9.10;3.87;;;16.20;64.80;;;;;;5080436;28;20544;-66
2021/03/06 09:53:14;;;;;;;9.13;3.43;;;16.00;64.40;;;;;;5080295;28;20479;-68
2021/03/06 09:55:41;;;;;;;6.67;2.30;;;15.60;65.40;;;;;;5074124;28;20799;-66
2021/03/06 09:58:22;;;;;;;7.43;2.83;;;15.10;65.50;;;;;;5080308;28;20912;-66
2021/03/06 10:00:49;;;;;;;7.70;3.10;;;16.10;66.00;;;;;;5079667;28;20517;-66
2021/03/06 10:03:30;;;;;;;9.37;2.77;;;17.30;66.60;;;;;;5086219;28;20444;-65
2021/03/06 10:05:59;;;;;;;8.97;2.67;;;17.70;63.50;;;;;;5087969;28;20531;-66
2021/03/06 10:08:27;;;;;;;8.50;3.10;;;18.10;62.30;;;;;;5083397;28;20587;-66
2021/03/06 10:10:54;;;;;;;6.40;2.13;;;17.60;60.70;;;;;;5073864;28;20492;-67
2021/03/06 10:13:21;;;;;;;10.90;2.47;;;18.10;62.70;;;;;;5084179;28;20992;-64
2021/03/06 10:15:48;;;;;;;8.00;2.77;;;17.60;62.00;;;;;;5092035;28;20886;-66
2021/03/06 10:18:15;;;;;;;8.47;3.17;;;16.80;60.30;;;;;;5090535;28;20550;-65
2021/03/06 10:20:41;;;;;;;10.07;2.80;;;16.90;60.00;;;;;;5087376;28;20794;-66
2021/03/06 10:23:10;;;;;;;11.03;3.13;;;16.40;61.60;;;;;;5079869;28;20526;-68
2021/03/06 10:25:37;;;;;;;9.03;2.80;;;16.80;61.90;;;;;;5073780;28;21230;-67
2021/03/06 10:28:11;;;;;;;11.50;2.60;;;17.90;62.60;;;;;;5073150;28;20479;-66
2021/03/06 10:30:40;;;;;;;9.57;3.47;;;17.20;60.90;;;;;;5072725;28;20446;-65
2021/03/06 10:33:19;;;;;;;8.10;2.40;;;17.50;60.40;;;;;;5071449;28;20891;-67
2021/03/06 10:35:49;;;;;;;8.73;3.20;;;18.30;59.90;;;;;;5073916;28;20534;-68
2021/03/06 10:38:25;;;;;;;7.70;2.40;;;17.40;61.40;;;;;;5072508;28;20447;-67
2021/03/06 10:40:54;;;;;;;13.60;2.90;;;18.80;61.10;;;;;;5073369;28;20522;-66
2021/03/06 10:43:31;;;;;;;7.30;2.73;;;19.10;59.30;;;;;;5072882;28;20435;-66
2021/03/06 10:46:11;;;;;;;10.67;4.70;;;19.80;59.30;;;;;;5075836;28;20469;-67
2021/03/06 10:48:38;;;;;;;8.50;3.00;;;21.00;59.40;;;;;;5073924;28;20562;-66
2021/03/06 10:51:05;;;;;;;6.50;2.43;;;21.60;56.40;;;;;;5084201;28;20961;-66
2021/03/06 10:53:32;;;;;;;6.57;2.40;;;20.50;55.80;;;;;;5091293;28;20446;-67
2021/03/06 10:55:59;;;;;;;7.33;2.73;;;22.30;55.30;;;;;;5075403;28;20451;-67
2021/03/06 10:58:42;;;;;;;9.57;2.60;;;21.40;52.80;;;;;;5075297;28;20458;-67
2021/03/06 11:01:09;;;;;;;7.70;2.97;;;19.20;52.70;;;;;;5075975;28;20447;-67
2021/03/06 11:03:45;;;;;;;9.63;3.10;;;19.60;56.80;;;;;;5088468;28;20465;-66
2021/03/06 11:06:12;;;;;;;8.97;3.20;;;21.10;56.00;;;;;;5082689;28;20446;-67
2021/03/06 11:08:40;;;;;;;8.47;3.70;;;21.00;54.00;;;;;;5100909;28;20473;-66
2021/03/06 11:11:07;;;;;;;10.93;3.20;;;19.50;52.60;;;;;;5093716;27;20478;-67
2021/03/06 11:13:42;;;;;;;8.70;3.77;;;17.90;53.20;;;;;;5089270;28;20460;-66
2021/03/06 11:16:09;;;;;;;10.87;5.57;;;15.90;54.50;;;;;;5090186;28;20442;-66
2021/03/06 11:18:38;;;;;;;9.27;2.97;;;15.50;56.10;;;;;;5090365;28;20521;-66
2021/03/06 11:21:08;;;;;;;9.20;3.80;;;15.10;58.10;;;;;;5077812;28;20531;-66
2021/03/06 11:23:35;;;;;;;9.30;3.10;;;14.70;55.90;;;;;;5088778;28;20461;-65
2021/03/06 11:26:02;;;;;;;9.50;3.63;;;13.30;57.10;;;;;;5089365;28;21082;-65
2021/03/06 11:28:29;;;;;;;8.00;2.90;;;14.70;59.30;;;;;;5088043;28;20565;-65
2021/03/06 11:30:57;;;;;;;7.70;2.47;;;16.80;57.90;;;;;;5093717;28;20445;-67
2021/03/06 11:33:24;;;;;;;7.23;3.00;;;17.60;54.20;;;;;;5106600;28;20513;-65
2021/03/06 11:35:51;;;;;;;6.23;2.43;;;17.90;55.50;;;;;;5086331;28;20516;-62
2021/03/06 11:38:19;;;;;;;11.63;3.00;;;17.40;64.60;;;;;;5085300;28;20828;-61
2021/03/06 11:40:47;;;;;;;11.93;6.07;;;16.20;60.80;;;;;;5094506;28;20941;-62
2021/03/06 11:43:16;;;;;;;10.13;3.23;;;17.00;60.40;;;;;;5079302;28;20447;-61
2021/03/06 11:45:42;;;;;;;8.80;3.20;;;16.90;58.40;;;;;;5097313;28;20977;-61
2021/03/06 11:48:12;;;;;;;8.57;3.17;;;17.00;61.20;;;;;;5090768;28;20478;-63
2021/03/06 11:50:40;;;;;;;9.23;4.17;;;18.50;59.00;;;;;;5088603;28;20959;-67
2021/03/06 11:53:07;;;;;;;8.90;3.83;;;21.20;55.00;;;;;;5090404;28;20491;-66
2021/03/06 11:55:34;;;;;;;7.20;3.00;;;19.60;54.40;;;;;;5088041;28;20443;-66
2021/03/06 11:58:00;;;;;;;11.20;3.80;;;20.60;53.30;;;;;;5089476;28;20489;-66
2021/03/06 12:00:29;;;;;;;7.27;3.23;;;19.50;51.50;;;;;;5080855;28;20449;-68
2021/03/06 12:02:56;;;;;;;9.37;3.80;;;17.60;51.50;;;;;;5089203;28;20450;-65
2021/03/06 12:05:23;;;;;;;10.53;3.57;;;15.00;53.90;;;;;;5084430;28;20537;-65
2021/03/06 12:07:51;;;;;;;10.13;3.70;;;14.00;55.40;;;;;;5088578;28;20568;-67
2021/03/06 12:10:20;;;;;;;10.00;4.47;;;13.40;56.60;;;;;;5087094;28;20449;-67
2021/03/06 12:12:46;;;;;;;10.03;3.77;;;12.00;57.20;;;;;;5080137;28;20530;-66
2021/03/06 12:18:28;;;;;;;10.10;4.30;;;14.50;59.00;;;;;;5100793;27;20608;-65
2021/03/06 12:20:55;;;;;;;8.90;3.73;;;15.00;57.30;;;;;;5072968;28;20451;-66
2021/03/06 12:23:22;;;;;;;14.60;4.30;;;14.20;57.90;;;;;;5083978;28;20525;-66
2021/03/06 12:25:48;;;;;;;8.00;3.83;;;12.20;57.20;;;;;;5086144;28;20539;-66
2021/03/06 12:28:16;;;;;;;8.90;3.30;;;13.70;62.00;;;;;;5083354;28;20448;-66
2021/03/06 12:34:06;;;;;;;8.83;3.50;;;18.00;53.90;;;;;;5077745;28;20261;-66
2021/03/06 12:36:33;;;;;;;9.50;3.30;;;19.10;53.60;;;;;;5074577;28;21434;-67
2021/03/06 12:38:59;;;;;;;6.87;2.30;;;18.70;52.80;;;;;;5072991;28;20454;-73
2021/03/06 12:41:26;;;;;;;12.53;3.17;;;20.10;52.60;;;;;;5077532;28;20521;-64
2021/03/06 12:43:53;;;;;;;6.27;2.37;;;20.60;51.00;;;;;;5080989;28;20533;-67
2021/03/06 12:46:21;;;;;;;7.20;2.80;;;22.50;50.50;;;;;;5095869;28;20543;-66
2021/03/06 12:48:47;;;;;;;7.17;2.80;;;24.10;50.20;;;;;;5090208;28;20463;-67
2021/03/06 12:51:14;;;;;;;7.67;2.50;;;25.50;50.00;;;;;;5089012;28;20483;-67
2021/03/06 12:53:41;;;;;;;6.20;2.40;;;24.80;45.40;;;;;;5080738;28;20550;-67
2021/03/06 12:56:08;;;;;;;6.10;2.13;;;25.00;43.70;;;;;;5101817;28;20853;-67